This is the latest recevied weather packets stored in our database for station/object SP5MRF-12. If no packets are shown the sender has not sent any weather packets the latest 10 day(s).
| Time | Temp. | Humidity | Pressure | Rain* | Wind** | Luminosity | Snow |
|---|---|---|---|---|---|---|---|
| 1788064159 | 21.11° C | 42% | 1016.7 hPa | - | - | - | - |
| 1788063439 | 21.11° C | 42% | 1016.7 hPa | - | - | - | - |
| 1788062718 | 21.67° C | 42% | 1016.7 hPa | - | - | - | - |
| 1788061998 | 21.67° C | 42% | 1016.7 hPa | - | - | - | - |
| 1788061278 | 21.67° C | 42% | 1016.7 hPa | - | - | - | - |
| 1788060558 | 21.67° C | 42% | 1016.6 hPa | - | - | - | - |
| 1788059838 | 21.67° C | 42% | 1016.7 hPa | - | - | - | - |
| 1788059118 | 21.67° C | 42% | 1016.7 hPa | - | - | - | - |
| 1788058398 | 21.67° C | 42% | 1016.6 hPa | - | - | - | - |
| 1788057678 | 22.22° C | 42% | 1016.6 hPa | - | - | - | - |
| 1788056957 | 22.22° C | 42% | 1016.5 hPa | - | - | - | - |
| 1788056237 | 22.22° C | 42% | 1016.5 hPa | - | - | - | - |
| 1788055517 | 22.22° C | 42% | 1016.5 hPa | - | - | - | - |
| 1788054797 | 22.22° C | 42% | 1016.5 hPa | - | - | - | - |
| 1788054077 | 22.22° C | 42% | 1016.4 hPa | - | - | - | - |
| 1788053357 | 17.22° C | 42% | 1008.1 hPa | - | - | - | - |
| 1788052637 | 22.78° C | 42% | 1016.2 hPa | - | - | - | - |
| 1788051937 | 21.11° C | 42% | 1014.4 hPa | - | - | - | - |
| 1788051217 | 22.78° C | 42% | 1016.2 hPa | - | - | - | - |
| 1788050497 | 22.78° C | 42% | 1016.2 hPa | - | - | - | - |
| 1788049777 | 22.78° C | 42% | 1016.1 hPa | - | - | - | - |
| 1788049057 | 22.78° C | 42% | 1016.1 hPa | - | - | - | - |
| 1788048336 | 22.78° C | 42% | 1016.1 hPa | - | - | - | - |
| 1788047598 | 22.78° C | 42% | 1016.6 hPa | - | - | - | - |
| 1788046878 | 23.33° C | 42% | 1016.2 hPa | - | - | - | - |
* Rain since midnight (hover to see other rain measurements)
** Current wind speed in m/s (hover to see current wind gust speed)